Latest Weather Observations for Shepparton

IDV60801

Issued at 4:02 pm EDT Saturday 20 December 2014 (issued every 30 minutes, with the page automatically refreshed every 10 minutes)

About weather observations | Map of weather stations | Latest weather observations for VIC | Other Formats
Station Details ID: 081125 Name: SHEPPARTON AIRPORT Lat: -36.43 Lon: 145.39 Height: 113.9 m
Data from the previous 72 hours. | See also: Recent months at Shepparton
Date/Time
EDT
Temp
°C
App
Temp
°C
Dew
Point
Rel
Hum
%
Delta-T
°C
Wind Press
QNH
hPa
Press
MSL
hPa
Rain
since 9 am
mm
Dir
 
Spd
km/h
Gust
km/h
Spd
kts
Gust
kts
20/04:00pm 27.8 23.8 6.6 26 11.2 SSW 17 28 9 15 1014.6 1014.2 0.0
20/03:30pm 26.9 22.3 6.3 27 10.8 SW 20 33 11 18 1015.1 1014.7 0.0
20/03:00pm 26.3 22.5 7.4 30 10.1 SSW 17 28 9 15 1015.5 1015.1 0.0
20/02:30pm 25.9 21.5 6.5 29 10.2 S 19 33 10 18 1015.9 1015.6 0.0
20/02:00pm 26.0 22.6 7.6 31 9.8 SW 15 26 8 14 1016.3 1016.0 0.0
20/01:30pm 25.1 21.2 7.3 32 9.4 SSW 17 26 9 14 1016.5 1016.2 0.0
20/01:00pm 24.3 20.3 6.6 32 9.2 S 17 26 9 14 1017.1 1016.8 0.0
20/12:30pm 23.5 19.3 5.9 32 9.0 SW 17 28 9 15 1017.3 1017.0 0.0
20/12:00pm 23.4 19.3 6.2 33 8.8 SSW 17 26 9 14 1017.5 1017.2 0.0
20/11:30am 22.9 19.6 6.2 34 8.5 SW 13 24 7 13 1017.8 1017.5 0.0
20/11:00am 21.8 18.5 6.5 37 7.8 SSW 13 24 7 13 1018.0 1017.7 0.0
20/10:30am 20.2 16.4 5.8 39 7.2 SSW 15 20 8 11 1018.2 1017.9 0.0
20/10:00am 19.0 15.3 6.1 43 6.4 SSW 15 20 8 11 1018.3 1018.0 0.0
20/09:30am 18.1 14.8 6.3 46 5.9 S 13 20 7 11 1018.4 1018.1 0.0
20/09:00am 17.2 12.8 6.4 49 5.3 S 19 24 10 13 1018.2 1017.9 0.0
20/08:30am 16.1 11.1 6.5 53 4.7 S 22 30 12 16 1017.9 1017.6 0.0
20/08:00am 15.1 11.1 6.7 57 4.1 S 17 28 9 15 1017.7 1017.4 0.0
20/07:30am 13.8 9.4 6.7 62 3.4 S 19 24 10 13 1017.7 1017.4 0.0
20/07:00am 12.7 9.0 6.5 66 3.0 SSW 15 20 8 11 1017.6 1017.3 0.0
20/06:30am 11.7 9.2 6.6 71 2.4 SSW 9 13 5 7 1017.4 1017.1 0.0
20/06:00am 11.1 7.7 6.0 71 2.4 SSW 13 15 7 8 1017.2 1016.9 0.0
20/05:30am 11.6 7.9 6.3 70 2.5 S 15 19 8 10 1017.0 1016.7 0.0
20/05:00am 11.2 8.2 6.1 71 2.4 S 11 15 6 8 1016.9 1016.6 0.0
20/04:30am 11.6 8.3 6.3 70 2.5 S 13 17 7 9 1016.8 1016.5 0.0
20/04:00am 11.8 8.5 6.5 70 2.5 SSE 13 17 7 9 1016.9 1016.6 0.0
20/03:30am 12.5 8.6 7.0 69 2.7 S 17 20 9 11 1017.1 1016.8 0.0
20/03:00am 12.2 9.1 7.1 71 2.5 S 13 15 7 8 1017.3 1017.0 0.0
20/02:30am 12.6 9.1 7.3 70 2.6 S 15 19 8 10 1017.4 1017.1 0.0
20/02:00am 13.0 9.8 7.0 67 2.9 S 13 15 7 8 1017.7 1017.4 0.0
20/01:30am 13.2 10.0 7.0 66 3.0 S 13 17 7 9 1017.8 1017.5 0.0
20/01:00am 13.8 10.9 6.4 61 3.6 S 11 15 6 8 1017.8 1017.5 0.0
20/12:30am 14.5 10.8 6.3 58 4.0 S 15 19 8 10 1017.9 1017.6 0.0
20/12:00am 15.3 10.8 6.3 55 4.4 S 19 24 10 13 1018.1 1017.8 0.0
 
Date/Time
EDT
Temp
°C
App
Temp
°C
Dew
Point
Rel
Hum
%
Delta-T
°C
Wind Press
QNH
hPa
Press
MSL
hPa
Rain
since 9 am
mm
Dir
 
Spd
km/h
Gust
km/h
Spd
kts
Gust
kts
19/11:30pm 15.7 11.6 6.2 53 4.6 S 17 22 9 12 1018.3 1018.0 0.0
19/11:00pm 16.1 11.9 5.7 50 5.0 S 17 22 9 12 1018.4 1018.1 0.0
19/10:30pm 16.1 12.5 4.8 47 5.4 SSE 13 17 7 9 1018.2 1017.9 0.0
19/10:00pm 17.0 13.0 5.0 45 5.7 SSE 15 19 8 10 1017.9 1017.6 0.0
19/09:30pm 17.3 13.6 4.3 42 6.2 SSE 13 19 7 10 1017.6 1017.3 0.0
19/09:00pm 18.3 13.7 3.8 38 6.8 SSE 17 22 9 12 1017.2 1016.9 0.0
19/08:30pm 19.3 13.7 3.5 35 7.5 SSE 22 30 12 16 1017.1 1016.8 0.0
19/08:00pm 20.5 15.3 3.7 33 8.0 SSE 20 26 11 14 1016.8 1016.5 0.0
19/07:30pm 21.3 15.2 3.0 30 8.7 S 24 33 13 18 1016.4 1016.1 0.0
19/07:00pm 21.9 16.6 3.1 29 9.0 SSW 20 30 11 16 1016.2 1015.9 0.0
19/06:30pm 22.0 15.5 2.7 28 9.2 S 26 35 14 19 1015.9 1015.6 0.0
19/06:00pm 22.3 15.4 2.4 27 9.4 S 28 37 15 20 1015.6 1015.2 0.0
19/05:30pm 22.4 15.5 2.5 27 9.5 S 28 41 15 22 1015.4 1015.0 0.0
19/05:00pm 23.1 16.7 3.1 27 9.7 S 26 39 14 21 1015.5 1015.1 0.0
19/04:30pm 22.6 16.5 2.7 27 9.5 SSW 24 39 13 21 1015.5 1015.1 0.0
19/04:00pm 23.1 17.1 3.1 27 9.7 SSW 24 37 13 20 1015.7 1015.4 0.0
19/03:30pm 21.9 15.0 2.6 28 9.2 SSW 28 43 15 23 1015.6 1015.2 0.0
19/03:19pm 22.4 15.2 3.0 28 9.3 S 30 48 16 26 1015.6 1015.2 0.0
19/03:00pm 22.7 15.8 2.8 27 9.5 SSW 28 41 15 22 1015.7 1015.4 0.0
19/02:48pm 22.0 15.0 2.2 27 9.3 SSW 28 46 15 25 1015.8 1015.5 0.0
19/02:30pm 21.3 13.9 2.1 28 9.0 S 30 43 16 23 1015.9 1015.6 0.0
19/02:00pm 22.0 15.7 3.6 30 8.9 SSW 26 46 14 25 1016.2 1015.9 0.0
19/01:38pm 21.2 14.3 2.5 29 8.8 S 28 46 15 25 1016.0 1015.7 0.0
19/01:30pm 21.3 14.4 2.6 29 8.8 SSW 28 44 15 24 1016.2 1015.9 0.0
19/01:00pm 20.8 14.8 3.1 31 8.4 S 24 37 13 20 1016.3 1016.0 0.0
19/12:30pm 20.4 14.0 3.2 32 8.2 SSW 26 37 14 20 1016.4 1016.1 0.0
19/12:09pm 19.4 12.5 2.7 33 7.8 S 28 61 15 33 1016.6 1016.3 0.0
19/12:06pm 19.8 13.0 3.1 33 7.9 S 28 61 15 33 1016.5 1016.2 0.0
19/12:04pm 20.1 14.1 3.3 33 8.0 SSW 24 61 13 33 1016.5 1016.2 0.0
19/12:00pm 20.7 14.7 3.4 32 8.3 SSW 24 41 13 22 1016.5 1016.2 0.0
19/11:30am 19.3 14.0 3.1 34 7.6 SSE 20 33 11 18 1016.3 1016.0 0.0
19/11:00am 17.5 11.1 3.4 39 6.6 SSW 26 35 14 19 1016.6 1016.3 0.0
19/10:30am 17.7 12.6 4.3 41 6.4 S 20 30 11 16 1016.6 1016.3 0.0
19/10:00am 16.5 11.3 5.5 48 5.3 S 22 32 12 17 1016.5 1016.2 0.0
19/09:30am 16.4 10.9 5.7 49 5.2 S 24 33 13 18 1016.7 1016.4 0.0
19/09:00am 15.5 9.9 5.4 51 4.8 S 24 35 13 19 1016.6 1016.3 0.0
19/08:30am 14.4 10.0 6.7 60 3.8 S 19 24 10 13 1016.2 1015.9 0.0
19/08:00am 13.5 9.1 7.3 66 3.0 S 20 32 11 17 1015.8 1015.5 0.0
19/07:30am 12.7 9.2 7.4 70 2.6 SSW 15 24 8 13 1015.5 1015.1 0.0
19/07:00am 11.7 7.5 7.4 75 2.1 SSW 19 24 10 13 1015.1 1014.7 0.0
19/06:30am 11.2 7.4 7.5 78 1.8 SSW 17 22 9 12 1014.7 1014.3 0.0
19/06:00am 10.6 6.8 7.5 81 1.5 SSW 17 20 9 11 1014.6 1014.2 0.0
19/05:30am 10.3 7.2 7.4 82 1.4 SSW 13 17 7 9 1014.4 1014.0 0.0
19/05:00am 10.9 7.9 7.6 80 1.6 SW 13 20 7 11 1014.2 1013.8 0.0
19/04:30am 11.0 7.9 7.3 78 1.8 S 13 19 7 10 1013.5 1013.1 0.0
19/04:00am 11.9 7.7 7.6 75 2.1 S 19 24 10 13 1013.3 1012.9 0.0
19/03:30am 11.9 7.7 7.4 74 2.2 SSW 19 24 10 13 1013.2 1012.8 0.0
19/03:00am 11.9 9.0 8.0 77 1.9 SSW 13 17 7 9 1013.2 1012.8 0.0
19/02:30am 11.9 9.0 8.0 77 1.9 SSW 13 17 7 9 1013.2 1012.8 0.0
19/02:00am 11.9 9.3 7.8 76 2.0 SSW 11 15 6 8 1013.1 1012.7 0.0
19/01:30am 12.4 10.2 7.9 74 2.2 SW 9 13 5 7 1013.0 1012.6 0.0
19/01:00am 12.4 9.7 7.5 72 2.4 SW 11 15 6 8 1013.0 1012.6 0.0
19/12:30am 13.0 10.9 8.1 72 2.4 SSW 9 13 5 7 1012.9 1012.5 0.0
19/12:00am 13.7 10.5 8.3 70 2.7 S 15 19 8 10 1012.6 1012.2 0.0
 
Date/Time
EDT
Temp
°C
App
Temp
°C
Dew
Point
Rel
Hum
%
Delta-T
°C
Wind Press
QNH
hPa
Press
MSL
hPa
Rain
since 9 am
mm
Dir
 
Spd
km/h
Gust
km/h
Spd
kts
Gust
kts
18/11:30pm 14.2 11.2 9.2 72 2.6 S 15 20 8 11 1012.7 1012.3 0.0
18/11:00pm 14.5 11.6 9.7 73 2.5 S 15 19 8 10 1012.7 1012.3 0.0
18/10:30pm 14.9 12.5 10.1 73 2.5 S 13 19 7 10 1012.5 1012.1 0.0
18/10:00pm 15.1 12.7 10.1 72 2.6 SSE 13 13 7 7 1012.2 1011.8 0.0
18/09:30pm 16.0 13.2 9.9 67 3.2 SSE 15 17 8 9 1011.8 1011.4 0.0
18/09:00pm 17.0 13.5 8.9 59 4.2 S 17 22 9 12 1011.3 1010.9 0.0
18/08:30pm 18.6 14.8 7.4 48 5.7 SW 17 26 9 14 1010.7 1010.3 0.0
18/08:00pm 18.8 15.2 8.2 50 5.5 SW 17 24 9 13 1010.4 1010.0 0.0
18/07:30pm 19.2 13.5 8.5 50 5.6 SSW 28 39 15 21 1009.7 1009.4 0.0
18/07:00pm 20.2 13.9 8.8 48 6.0 SSW 32 41 17 22 1009.1 1008.8 0.0
18/06:32pm 20.8 14.4 8.4 45 6.5 SW 32 50 17 27 1008.6 1008.3 0.0
18/06:30pm 20.9 14.2 8.2 44 6.7 SW 33 50 18 27 1008.6 1008.3 0.0
18/06:00pm 21.5 14.2 7.3 40 7.4 SW 35 46 19 25 1007.8 1007.4 0.0
18/05:46pm 21.5 12.9 6.6 38 7.6 WSW 41 65 22 35 1007.4 1007.0 0.0
18/05:37pm 22.9 14.3 4.4 30 9.2 W 39 65 21 35 1006.8 1006.4 0.0
18/05:30pm 24.2 16.4 2.9 25 10.3 W 33 46 18 25 1006.7 1006.3 0.0
18/05:00pm 24.6 17.0 2.7 24 10.6 W 32 46 17 25 1006.7 1006.3 0.0
18/04:30pm 24.3 16.8 1.2 22 10.9 W 30 39 16 21 1006.7 1006.3 0.0
18/04:11pm 24.7 17.8 2.8 24 10.6 W 28 46 15 25 1006.6 1006.2 0.0
18/04:00pm 25.5 17.5 1.6 21 11.5 WNW 33 48 18 26 1006.4 1006.0 0.0
18/03:58pm 25.7 17.7 1.8 21 11.5 W 33 52 18 28 1006.4 1006.0 0.0
18/03:46pm 26.3 17.8 2.9 22 11.5 W 37 61 20 33 1006.5 1006.1 0.0
18/03:44pm 25.9 17.1 1.2 20 11.8 WNW 37 61 20 33 1006.3 1005.9 0.0
18/03:30pm 24.8 16.3 2.9 24 10.7 WNW 37 57 20 31 1006.3 1005.9 0.0
18/03:29pm 24.8 16.1 2.3 23 10.8 WNW 37 57 20 31 1006.2 1005.8 0.0
18/03:01pm 26.2 18.8 4.1 24 11.1 W 32 54 17 29 1006.0 1005.6 0.0
18/03:00pm 26.4 19.0 4.2 24 11.2 W 32 43 17 23 1006.1 1005.7 0.0
18/02:37pm 25.1 17.8 4.3 26 10.4 W 32 50 17 27 1006.3 1005.9 0.0
18/02:30pm 25.2 17.2 3.8 25 10.6 W 35 50 19 27 1006.3 1005.9 0.0
18/02:05pm 24.7 17.7 3.9 26 10.3 W 30 48 16 26 1006.5 1006.1 0.0
18/02:00pm 24.7 18.0 3.4 25 10.5 W 28 44 15 24 1006.4 1006.0 0.0
18/01:33pm 25.1 18.4 3.7 25 10.6 W 28 46 15 25 1006.4 1006.0 0.0
18/01:30pm 25.0 18.3 3.6 25 10.6 WNW 28 39 15 21 1006.4 1006.0 0.0
18/01:00pm 25.8 18.1 2.5 22 11.4 WNW 32 43 17 23 1006.5 1006.1 0.0
18/12:30pm 26.2 17.4 1.5 20 11.8 WNW 37 54 20 29 1006.8 1006.4 0.0
18/12:12pm 26.0 17.7 2.0 21 11.6 W 35 54 19 29 1006.7 1006.3 0.0
18/12:00pm 26.2 18.2 1.5 20 11.9 WNW 33 50 18 27 1006.5 1006.1 0.0
18/11:30am 26.1 18.9 0.7 19 12.0 WNW 28 46 15 25 1006.6 1006.2 0.0
18/11:27am 26.1 18.8 0.0 18 12.2 WNW 28 46 15 25 1006.5 1006.1 0.0
18/11:00am 26.3 19.5 0.9 19 12.1 WNW 26 39 14 21 1006.7 1006.3 0.0
18/10:30am 24.7 17.8 0.3 20 11.3 NNW 26 43 14 23 1006.7 1006.3 0.0
18/10:00am 24.1 19.1 1.1 22 10.8 NNW 17 28 9 15 1007.1 1006.7 0.0
18/09:30am 22.4 17.5 2.0 26 9.6 NNW 17 22 9 12 1007.2 1006.8 0.0
18/09:00am 20.2 15.9 3.4 33 8.0 N 15 19 8 10 1007.3 1006.9 0.0
18/08:30am 18.4 14.6 3.8 38 6.9 NNE 13 15 7 8 1007.2 1006.8 0.0
18/08:00am 16.6 13.7 4.6 45 5.7 NE 9 13 5 7 1007.3 1006.9 0.0
18/07:30am 14.3 10.8 3.7 49 4.8 NE 11 15 6 8 1007.3 1006.9 0.0
18/07:00am 12.8 11.3 4.8 58 3.7 NE 2 7 1 4 1007.2 1006.8 0.0
18/06:30am 10.2 9.3 6.0 75 2.0 CALM 0 0 0 0 1006.9 1006.5 0.0
18/06:00am 9.4 8.4 5.6 77 1.7 CALM 0 0 0 0 1006.6 1006.2 0.0
18/05:30am 9.8 8.8 5.6 75 1.9 CALM 0 0 0 0 1006.4 1006.0 0.0
18/05:00am 10.0 9.0 5.4 73 2.1 CALM 0 0 0 0 1006.3 1005.9 0.0
18/04:30am 10.5 9.5 5.7 72 2.2 CALM 0 0 0 0 1006.2 1005.8 0.0
18/04:00am 10.8 9.6 4.7 66 2.8 CALM 0 0 0 0 1005.9 1005.5 0.0
18/03:30am 11.3 10.1 4.7 64 3.0 CALM 0 0 0 0 1005.7 1005.3 0.0
18/03:00am 11.8 10.5 4.3 60 3.4 CALM 0 0 0 0 1005.7 1005.3 0.0
18/02:30am 12.5 11.3 4.5 58 3.7 CALM 0 0 0 0 1005.8 1005.4 0.0
18/02:00am 13.3 11.6 3.9 53 4.3 SW 2 7 1 4 1005.9 1005.5 0.0
18/01:30am 14.4 13.1 4.1 50 4.8 CALM 0 0 0 0 1005.8 1005.4 0.0
18/01:00am 15.1 13.5 2.6 43 5.6 CALM 0 0 0 0 1005.8 1005.4 0.0
18/12:30am 15.0 11.1 3.5 46 5.3 S 13 19 7 10 1006.3 1005.9 0.0
18/12:00am 15.7 12.6 1.4 38 6.3 NNW 7 9 4 5 1006.3 1005.9 0.0
 
Date/Time
EDT
Temp
°C
App
Temp
°C
Dew
Point
Rel
Hum
%
Delta-T
°C
Wind Press
QNH
hPa
Press
MSL
hPa
Rain
since 9 am
mm
Dir
 
Spd
km/h
Gust
km/h
Spd
kts
Gust
kts
17/11:30pm 16.1 13.0 1.4 37 6.5 NW 7 9 4 5 1006.4 1006.0 0.0
17/11:00pm 16.9 13.0 1.4 35 6.9 NNW 11 11 6 6 1006.7 1006.3 0.0
17/10:30pm 16.9 13.8 1.4 35 6.9 NNW 7 9 4 5 1006.8 1006.4 0.0
17/10:00pm 17.5 14.0 1.5 34 7.2 NNW 9 11 5 6 1006.7 1006.3 0.0
17/09:30pm 18.2 14.7 1.3 32 7.6 NNW 9 11 5 6 1006.6 1006.2 0.0
17/09:00pm 19.0 15.5 1.1 30 8.1 NNW 9 11 5 6 1006.5 1006.1 0.0
17/08:30pm 20.8 17.2 0.6 26 9.1 NW 9 13 5 7 1006.6 1006.2 0.0
17/08:00pm 22.7 19.3 -0.7 21 10.5 NW 7 17 4 9 1006.4 1006.0 0.0
17/07:30pm 23.5 19.6 -1.4 19 11.1 W 9 17 5 9 1006.1 1005.7 0.0
17/07:00pm 24.5 21.2 -1.3 18 11.6 W 6 13 3 7 1005.8 1005.4 0.0
17/06:30pm 24.4 20.6 -0.7 19 11.4 WNW 9 15 5 8 1005.6 1005.2 0.0
17/06:00pm 24.2 19.5 -1.6 18 11.5 WSW 13 26 7 14 1005.6 1005.2 0.0
17/05:30pm 23.4 19.0 -2.2 18 11.2 WSW 11 24 6 13 1005.7 1005.3 0.0
17/05:00pm 24.3 19.3 -1.5 18 11.6 SW 15 24 8 13 1005.9 1005.5 0.0
17/04:30pm 23.5 18.9 -0.7 20 10.9 SW 13 20 7 11 1006.2 1005.8 0.0

Other Formats:

Comma delimited format used in spreadsheet applications
http://www.bom.gov.au/fwo/IDV60801/IDV60801.94875.axf

JavaScript Object Notation format (JSON) in row-major order
http://www.bom.gov.au/fwo/IDV60801/IDV60801.94875.json